createdAt,value
2024-01-18T00:02:31.192Z,0.95
2024-01-18T00:05:16.694Z,1.23
2024-01-18T00:08:02.392Z,0.50
2024-01-18T00:10:48.188Z,1.27
2024-01-18T00:13:33.856Z,0.88
2024-01-18T00:16:19.432Z,0.60
2024-01-18T00:19:04.939Z,0.95
2024-01-18T00:21:50.365Z,0.70
2024-01-18T00:24:35.955Z,1.15
2024-01-18T00:27:21.508Z,0.70
2024-01-18T00:30:07.612Z,1.08
2024-01-18T00:32:53.467Z,1.10
2024-01-18T00:35:38.865Z,1.17
2024-01-18T00:38:24.431Z,1.30
2024-01-18T00:41:10.084Z,0.77
2024-01-18T00:43:55.622Z,1.10
2024-01-18T00:46:41.079Z,0.90
2024-01-18T00:49:26.791Z,1.00
2024-01-18T00:52:12.767Z,0.77
2024-01-18T00:54:58.702Z,1.05
2024-01-18T00:57:44.261Z,0.90
2024-01-18T01:00:29.950Z,1.10
2024-01-18T01:03:15.652Z,1.42
2024-01-18T01:06:01.148Z,0.70
2024-01-18T01:08:47.133Z,1.20
2024-01-18T01:11:32.539Z,1.05
2024-01-18T01:14:17.979Z,1.08
2024-01-18T01:17:03.767Z,0.98
2024-01-18T01:19:49.506Z,1.80
2024-01-18T01:22:35.240Z,1.17
2024-01-18T01:25:21.038Z,1.38
2024-01-18T01:28:06.822Z,1.00
2024-01-18T01:30:52.639Z,1.60
2024-01-18T01:33:38.219Z,1.00
2024-01-18T01:36:24.152Z,1.10
2024-01-18T01:39:09.524Z,1.40
2024-01-18T01:41:55.149Z,1.27
2024-01-18T01:44:40.796Z,1.00
2024-01-18T01:47:26.363Z,1.38
2024-01-18T01:50:12.165Z,1.23
2024-01-18T01:52:57.655Z,1.20
2024-01-18T01:55:44.567Z,1.30
2024-01-18T01:58:30.151Z,1.90
2024-01-18T02:01:15.958Z,1.35
2024-01-18T02:04:01.639Z,1.33
2024-01-18T02:06:51.680Z,1.00
2024-01-18T02:09:37.997Z,1.50
2024-01-18T02:12:26.392Z,2.00
2024-01-18T02:15:12.574Z,1.08
2024-01-18T02:17:58.403Z,2.03
2024-01-18T02:20:44.712Z,1.90
2024-01-18T02:23:33.743Z,1.88
2024-01-18T02:26:19.597Z,1.70
2024-01-18T02:29:05.081Z,2.08
2024-01-18T02:31:50.693Z,1.23
2024-01-18T02:34:41.283Z,1.80
2024-01-18T02:37:26.709Z,1.40
2024-01-18T02:40:12.694Z,1.80
2024-01-18T02:42:58.512Z,1.30
2024-01-18T02:45:44.146Z,1.50
2024-01-18T02:48:29.975Z,1.63
2024-01-18T02:51:15.408Z,1.27
2024-01-18T02:54:00.912Z,1.52
2024-01-18T02:56:46.314Z,1.48
2024-01-18T02:59:31.938Z,1.58
2024-01-18T03:02:17.378Z,1.30
2024-01-18T03:05:02.994Z,1.45
2024-01-18T03:07:48.899Z,1.88
2024-01-18T03:10:34.585Z,1.58
2024-01-18T03:13:20.301Z,1.98
2024-01-18T03:16:05.923Z,1.45
2024-01-18T03:18:51.490Z,1.77
2024-01-18T03:21:37.132Z,2.60
2024-01-18T03:24:22.602Z,1.95
2024-01-18T03:27:07.916Z,2.00
2024-01-18T03:29:53.354Z,2.25
2024-01-18T03:32:38.878Z,1.85
2024-01-18T03:35:25.515Z,0.88
2024-01-18T03:38:11.496Z,1.55
2024-01-18T03:40:56.971Z,2.33
2024-01-18T03:43:42.628Z,2.15
2024-01-18T03:46:28.016Z,1.73
2024-01-18T03:49:13.779Z,2.33
2024-01-18T03:51:59.346Z,0.95
2024-01-18T03:54:45.631Z,1.80
2024-01-18T03:57:31.398Z,1.67
2024-01-18T04:00:16.959Z,1.30
2024-01-18T04:03:02.741Z,1.75
2024-01-18T04:05:48.400Z,2.15
2024-01-18T04:08:34.291Z,2.50
2024-01-18T04:11:20.377Z,2.28
2024-01-18T04:14:06.011Z,2.17
2024-01-18T04:16:51.538Z,1.42
2024-01-18T04:19:37.318Z,1.95
2024-01-18T04:22:24.295Z,1.73
2024-01-18T04:25:09.969Z,2.20
2024-01-18T04:27:55.565Z,1.13
2024-01-18T04:30:41.490Z,0.93
2024-01-18T04:33:27.353Z,1.52
2024-01-18T04:36:12.898Z,1.95
2024-01-18T04:38:58.539Z,1.30
2024-01-18T04:41:44.124Z,1.38
2024-01-18T04:44:29.683Z,1.50
2024-01-18T04:47:15.523Z,1.10
2024-01-18T04:50:01.253Z,1.70
2024-01-18T04:52:46.694Z,1.23
2024-01-18T04:55:32.402Z,1.70
2024-01-18T04:58:18.293Z,1.73
2024-01-18T05:01:04.276Z,1.83
2024-01-18T05:03:49.713Z,1.90
2024-01-18T05:06:35.717Z,2.33
2024-01-18T05:09:21.203Z,1.40
2024-01-18T05:12:09.889Z,2.03
2024-01-18T05:14:56.780Z,1.77
2024-01-18T05:17:45.252Z,2.00
2024-01-18T05:20:31.107Z,1.50
2024-01-18T05:23:16.722Z,1.30
2024-01-18T05:26:02.260Z,1.40
2024-01-18T05:28:47.827Z,1.42
2024-01-18T05:31:33.535Z,1.52
2024-01-18T05:34:19.189Z,1.40
2024-01-18T05:37:05.466Z,1.23
2024-01-18T05:39:51.699Z,1.10
2024-01-18T05:42:37.471Z,1.23
2024-01-18T05:45:22.979Z,1.17
2024-01-18T05:48:08.540Z,1.50
2024-01-18T05:50:53.936Z,1.20
2024-01-18T05:53:40.166Z,1.38
2024-01-18T05:56:25.921Z,0.77
2024-01-18T05:59:11.427Z,1.42
2024-01-18T06:01:57.364Z,0.77
2024-01-18T06:04:42.963Z,1.50
2024-01-18T06:07:28.976Z,1.17
2024-01-18T06:10:14.870Z,1.33
2024-01-18T06:13:00.921Z,1.00
2024-01-18T06:15:46.894Z,1.00
2024-01-18T06:18:32.609Z,1.73
2024-01-18T06:21:18.242Z,1.98
2024-01-18T06:24:04.026Z,1.70
2024-01-18T06:26:49.967Z,1.55
2024-01-18T06:29:36.518Z,1.92
2024-01-18T06:32:22.343Z,1.15
2024-01-18T06:35:07.873Z,1.27
2024-01-18T06:37:53.646Z,1.98
2024-01-18T06:40:41.918Z,2.05
2024-01-18T06:43:29.873Z,1.58
2024-01-18T06:46:18.817Z,1.98
2024-01-18T06:49:04.947Z,1.45
2024-01-18T06:51:50.674Z,1.48
2024-01-18T06:54:36.419Z,1.52
2024-01-18T06:57:22.018Z,1.42
2024-01-18T07:00:08.333Z,1.95
2024-01-18T07:02:54.781Z,1.27
2024-01-18T07:05:40.494Z,1.08
2024-01-18T07:08:25.973Z,1.77
2024-01-18T07:11:11.889Z,1.30
2024-01-18T07:13:58.024Z,1.80
2024-01-18T07:16:43.519Z,1.42
2024-01-18T07:19:29.242Z,0.85
2024-01-18T07:22:14.779Z,1.67
2024-01-18T07:25:00.300Z,1.92
2024-01-18T07:27:45.806Z,2.35
2024-01-18T07:30:31.315Z,2.58
2024-01-18T07:33:18.073Z,1.52
2024-01-18T07:36:04.299Z,1.50
2024-01-18T07:38:50.234Z,1.92
2024-01-18T07:41:36.004Z,1.63
2024-01-18T07:44:22.060Z,1.20
2024-01-18T07:47:11.105Z,1.50
2024-01-18T07:49:56.633Z,1.45
2024-01-18T07:52:42.468Z,1.83
2024-01-18T07:55:27.993Z,1.35
2024-01-18T07:58:14.917Z,1.55
2024-01-18T08:01:01.382Z,1.88
2024-01-18T08:03:47.274Z,1.52
2024-01-18T08:06:33.627Z,1.60
2024-01-18T08:09:19.789Z,1.67
2024-01-18T08:12:06.358Z,1.48
2024-01-18T08:14:51.848Z,0.90
2024-01-18T08:17:37.420Z,1.25
2024-01-18T08:20:22.744Z,1.23
2024-01-18T08:23:08.391Z,1.20
2024-01-18T08:25:53.732Z,1.90
2024-01-18T08:28:39.288Z,1.45
2024-01-18T08:31:24.885Z,1.38
2024-01-18T08:34:10.347Z,1.23
2024-01-18T08:36:55.813Z,2.30
2024-01-18T08:39:41.267Z,1.20
2024-01-18T08:42:27.194Z,1.42
2024-01-18T08:45:13.441Z,1.63
2024-01-18T08:47:59.200Z,1.98
2024-01-18T08:50:45.163Z,1.60
2024-01-18T08:53:32.147Z,1.85
2024-01-18T08:56:22.554Z,1.95
2024-01-18T08:59:12.723Z,1.80
2024-01-18T09:02:04.225Z,1.92
2024-01-18T09:04:55.432Z,1.30
2024-01-18T09:07:41.477Z,2.65
2024-01-18T09:10:26.865Z,1.80
2024-01-18T09:13:12.487Z,1.38
2024-01-18T09:15:58.396Z,1.48
2024-01-18T09:18:56.331Z,1.95
2024-01-18T09:21:49.783Z,2.17
2024-01-18T09:24:35.343Z,6.00
2024-01-18T09:27:21.212Z,5.85
2024-01-18T09:30:10.068Z,5.25
2024-01-18T09:32:56.056Z,4.53
2024-01-18T09:35:42.582Z,4.80
2024-01-18T09:38:30.827Z,8.55
2024-01-18T09:41:20.837Z,9.65
2024-01-18T09:44:08.308Z,9.23
2024-01-18T09:46:58.336Z,8.15
2024-01-18T09:49:45.848Z,9.82
2024-01-18T09:55:16.827Z,6.03
2024-01-18T09:58:03.815Z,7.25
2024-01-18T10:00:59.306Z,7.53
2024-01-18T10:03:45.233Z,5.88
2024-01-18T10:06:31.376Z,5.57
2024-01-18T10:09:17.358Z,7.15
2024-01-18T10:12:03.029Z,4.68
2024-01-18T10:14:48.859Z,5.55
2024-01-18T10:17:34.459Z,5.13
2024-01-18T10:20:20.233Z,5.97
2024-01-18T10:23:05.947Z,5.78
2024-01-18T10:25:52.239Z,6.47
2024-01-18T10:28:38.047Z,5.77
2024-01-18T10:31:23.561Z,6.40
2024-01-18T10:34:09.622Z,5.60
2024-01-18T10:36:56.087Z,8.07
2024-01-18T10:39:43.457Z,7.25
2024-01-18T10:45:15.041Z,8.73
2024-01-18T10:48:01.411Z,9.23
2024-01-18T10:50:48.028Z,4.72
2024-01-18T10:53:35.113Z,3.72
2024-01-18T10:56:24.233Z,4.95
2024-01-18T10:59:10.741Z,4.00
2024-01-18T11:02:00.478Z,3.57
2024-01-18T11:04:49.189Z,4.15
2024-01-18T11:07:40.573Z,4.10
2024-01-18T11:10:26.476Z,4.40
2024-01-18T11:13:13.209Z,3.65
2024-01-18T11:15:58.803Z,1.93
2024-01-18T11:18:51.061Z,6.55
2024-01-18T11:21:41.641Z,4.65
2024-01-18T11:24:27.482Z,2.47
2024-01-18T11:27:23.881Z,3.08
2024-01-18T11:30:14.667Z,5.03
2024-01-18T11:33:00.815Z,3.58
2024-01-18T11:35:46.536Z,5.13
2024-01-18T11:38:34.702Z,2.00
2024-01-18T11:41:24.212Z,1.85
2024-01-18T11:44:12.071Z,2.75
2024-01-18T11:46:58.809Z,3.13
2024-01-18T11:49:44.656Z,3.33
2024-01-18T11:52:33.463Z,4.97
2024-01-18T11:55:19.655Z,3.40
2024-01-18T11:58:05.507Z,3.33
2024-01-18T12:00:51.767Z,2.33
2024-01-18T12:03:37.578Z,2.08
2024-01-18T12:06:28.185Z,1.90
2024-01-18T12:09:14.022Z,2.65
2024-01-18T12:12:00.763Z,2.25
2024-01-18T12:14:48.730Z,2.10
2024-01-18T12:17:34.307Z,2.50
2024-01-18T12:20:20.979Z,2.13
2024-01-18T12:23:14.604Z,2.95
2024-01-18T12:26:00.628Z,1.30
2024-01-18T12:28:47.719Z,5.28
2024-01-18T12:31:35.317Z,1.35
2024-01-18T12:34:21.683Z,2.17
2024-01-18T12:37:07.132Z,1.83
2024-01-18T12:39:53.746Z,2.17
2024-01-18T12:42:39.873Z,1.67
2024-01-18T12:45:26.269Z,1.40
2024-01-18T12:48:12.630Z,1.75
2024-01-18T12:50:58.205Z,2.28
2024-01-18T12:53:44.342Z,1.48
2024-01-18T12:56:30.680Z,1.88
2024-01-18T12:59:16.094Z,1.65
2024-01-18T13:02:01.714Z,0.95
2024-01-18T13:04:50.232Z,1.60
2024-01-18T13:07:36.315Z,1.48
2024-01-18T13:10:23.714Z,2.03
2024-01-18T13:13:12.596Z,0.68
2024-01-18T13:15:59.473Z,2.10
2024-01-18T13:18:45.699Z,2.60
2024-01-18T13:21:31.396Z,1.38
2024-01-18T13:24:17.023Z,1.85
2024-01-18T13:27:06.256Z,1.38
2024-01-18T13:29:52.053Z,1.35
2024-01-18T13:32:37.640Z,2.17
2024-01-18T13:35:23.516Z,1.40
2024-01-18T13:38:10.342Z,0.93
2024-01-18T13:40:56.893Z,1.08
2024-01-18T13:43:44.223Z,1.35
2024-01-18T13:46:31.395Z,3.33
2024-01-18T13:49:17.073Z,0.98
2024-01-18T13:52:03.832Z,1.67
2024-01-18T13:54:49.896Z,1.98
2024-01-18T13:57:35.684Z,1.00
2024-01-18T14:00:21.547Z,1.90
2024-01-18T14:03:10.271Z,1.90
2024-01-18T14:05:57.052Z,1.00
2024-01-18T14:08:47.180Z,1.65
2024-01-18T14:11:35.047Z,2.70
2024-01-18T14:14:20.988Z,2.08
2024-01-18T14:17:08.278Z,2.28
2024-01-18T14:19:56.917Z,3.75
2024-01-18T14:22:44.551Z,4.38
2024-01-18T14:28:15.485Z,2.40
2024-01-18T14:31:02.452Z,1.80
2024-01-18T14:33:49.032Z,23.70
2024-01-18T14:36:34.962Z,17.42
2024-01-18T14:39:20.757Z,23.95
2024-01-18T14:42:06.947Z,8.27
2024-01-18T14:44:52.577Z,6.97
2024-01-18T14:47:38.189Z,12.98
2024-01-18T14:50:23.628Z,18.40
2024-01-18T14:53:10.265Z,15.23
2024-01-18T14:55:56.733Z,4.47
2024-01-18T14:58:44.578Z,3.78
2024-01-18T15:01:33.210Z,2.33
2024-01-18T15:04:19.051Z,2.53
2024-01-18T15:07:05.148Z,1.45
2024-01-18T15:09:51.006Z,1.95
2024-01-18T15:12:37.112Z,5.82
2024-01-18T15:15:22.579Z,3.00
2024-01-18T15:18:09.718Z,2.42
2024-01-18T15:20:55.508Z,9.95
2024-01-18T15:23:41.662Z,12.55
2024-01-18T15:26:27.162Z,7.38
2024-01-18T15:29:13.032Z,4.75
2024-01-18T15:31:58.851Z,5.60
2024-01-18T15:34:44.474Z,3.67
2024-01-18T15:37:30.426Z,5.30
2024-01-18T15:40:17.497Z,4.18
2024-01-18T15:43:03.196Z,12.43
2024-01-18T15:45:48.972Z,1.77
2024-01-18T15:48:37.108Z,5.85
2024-01-18T15:51:24.325Z,7.35
2024-01-18T15:54:09.767Z,2.13
2024-01-18T15:56:55.100Z,2.60
2024-01-18T15:59:40.738Z,2.75
2024-01-18T16:02:26.800Z,2.15
2024-01-18T16:05:12.552Z,3.50
2024-01-18T16:07:58.514Z,4.95
2024-01-18T16:10:44.087Z,4.35
2024-01-18T16:13:31.066Z,5.70
2024-01-18T16:16:16.897Z,1.60
2024-01-18T16:19:02.413Z,11.95
2024-01-18T16:21:48.749Z,2.22
2024-01-18T16:24:34.655Z,1.83
2024-01-18T16:27:20.432Z,5.53
2024-01-18T16:30:13.117Z,8.07
2024-01-18T16:33:05.546Z,3.53
2024-01-18T16:35:51.446Z,2.40
2024-01-18T16:38:36.927Z,7.78
2024-01-18T16:41:22.646Z,3.97
2024-01-18T16:44:08.953Z,7.45
2024-01-18T16:46:54.565Z,2.05
2024-01-18T16:49:40.473Z,2.50
2024-01-18T16:52:26.439Z,2.53
2024-01-18T16:55:12.286Z,4.03
2024-01-18T16:57:58.002Z,1.70
2024-01-18T17:00:43.542Z,3.63
2024-01-18T17:03:29.169Z,9.05
2024-01-18T17:06:16.712Z,1.10
2024-01-18T17:11:48.775Z,2.33
2024-01-18T17:14:34.449Z,2.85
2024-01-18T17:17:20.307Z,2.15
2024-01-18T17:20:06.083Z,1.05
2024-01-18T17:22:51.813Z,3.15
2024-01-18T17:25:37.518Z,2.35
2024-01-18T17:28:23.028Z,2.78
2024-01-18T17:31:09.419Z,2.47
2024-01-18T17:33:55.179Z,19.58
2024-01-18T17:36:40.982Z,4.50
2024-01-18T17:39:27.685Z,3.95
2024-01-18T17:42:13.514Z,4.45
2024-01-18T17:44:59.197Z,2.70
2024-01-18T17:47:45.952Z,4.30
2024-01-18T17:50:34.684Z,3.90
2024-01-18T17:53:20.066Z,2.55
2024-01-18T17:56:05.719Z,3.45
2024-01-18T17:58:51.421Z,4.07
2024-01-18T18:01:37.150Z,2.78
2024-01-18T18:04:22.811Z,3.47
2024-01-18T18:07:09.790Z,2.17
2024-01-18T18:09:56.264Z,2.92
2024-01-18T18:12:42.879Z,3.50
2024-01-18T18:15:31.658Z,7.10
2024-01-18T18:18:20.157Z,3.50
2024-01-18T18:21:05.849Z,2.72
2024-01-18T18:23:52.039Z,2.92
2024-01-18T18:26:37.669Z,1.92
2024-01-18T18:29:23.218Z,2.88
2024-01-18T18:32:08.754Z,4.78
2024-01-18T18:34:54.199Z,7.72
2024-01-18T18:37:39.861Z,7.57
2024-01-18T18:40:26.756Z,8.07
2024-01-18T18:43:12.394Z,4.20
2024-01-18T18:45:58.521Z,6.35
2024-01-18T18:48:43.981Z,7.18
2024-01-18T18:51:29.485Z,3.15
2024-01-18T18:54:14.929Z,12.90
2024-01-18T18:57:00.529Z,9.63
2024-01-18T18:59:49.752Z,4.18
2024-01-18T19:02:38.552Z,4.03
2024-01-18T19:05:24.253Z,6.57
2024-01-18T19:08:11.008Z,6.68
2024-01-18T19:10:56.545Z,5.38
2024-01-18T19:13:42.515Z,2.25
2024-01-18T19:16:28.751Z,6.90
2024-01-18T19:19:14.528Z,3.42
2024-01-18T19:22:01.559Z,4.05
2024-01-18T19:24:47.151Z,6.28
2024-01-18T19:27:32.766Z,2.83
2024-01-18T19:30:18.236Z,5.47
2024-01-18T19:33:04.349Z,6.10
2024-01-18T19:35:50.155Z,9.90
2024-01-18T19:38:35.844Z,8.15
2024-01-18T19:41:22.872Z,5.82
2024-01-18T19:46:54.347Z,4.72
2024-01-18T19:49:41.480Z,5.40
2024-01-18T19:52:28.527Z,4.90
2024-01-18T19:55:14.339Z,5.07
2024-01-18T19:58:00.042Z,4.20
2024-01-18T20:00:45.951Z,6.05
2024-01-18T20:03:31.371Z,5.53
2024-01-18T20:06:16.945Z,8.35
2024-01-18T20:09:03.963Z,7.25
2024-01-18T20:11:52.049Z,7.50
2024-01-18T20:14:38.789Z,4.20
2024-01-18T20:17:24.718Z,2.22
2024-01-18T20:20:10.788Z,3.65
2024-01-18T20:22:56.338Z,7.05
2024-01-18T20:25:41.848Z,4.07
2024-01-18T20:28:28.588Z,9.05
2024-01-18T20:31:15.534Z,4.90
2024-01-18T20:34:01.661Z,2.92
2024-01-18T20:36:46.925Z,5.40
2024-01-18T20:39:35.046Z,4.57
2024-01-18T20:42:21.106Z,4.20
2024-01-18T20:45:07.432Z,3.78
2024-01-18T20:47:53.138Z,3.40
2024-01-18T20:50:38.742Z,4.75
2024-01-18T20:53:25.244Z,4.53
2024-01-18T20:56:10.992Z,3.83
2024-01-18T20:58:57.179Z,4.80
2024-01-18T21:01:43.697Z,3.58
2024-01-18T21:04:30.427Z,4.53
2024-01-18T21:07:17.044Z,3.25
2024-01-18T21:10:02.785Z,3.08
2024-01-18T21:12:49.001Z,2.38
2024-01-18T21:15:34.533Z,2.77
2024-01-18T21:18:20.116Z,3.33
2024-01-18T21:21:06.384Z,4.20
2024-01-18T21:23:52.598Z,5.30
2024-01-18T21:26:37.962Z,4.88
2024-01-18T21:29:23.465Z,3.60
2024-01-18T21:32:09.115Z,2.75
2024-01-18T21:34:54.678Z,2.42
2024-01-18T21:37:41.038Z,1.85
2024-01-18T21:40:27.981Z,3.80
2024-01-18T21:43:13.644Z,3.22
2024-01-18T21:45:59.517Z,1.23
2024-01-18T21:48:45.969Z,4.93
2024-01-18T21:51:32.178Z,7.50
2024-01-18T21:54:17.915Z,3.33
2024-01-18T21:57:03.826Z,5.80
2024-01-18T21:59:50.199Z,5.07
2024-01-18T22:02:38.452Z,3.75
2024-01-18T22:05:27.397Z,1.80
2024-01-18T22:08:13.283Z,1.85
2024-01-18T22:10:59.218Z,1.10
2024-01-18T22:13:44.973Z,1.02
2024-01-18T22:16:30.863Z,2.33
2024-01-18T22:19:29.322Z,1.67
2024-01-18T22:22:23.107Z,1.77
2024-01-18T22:25:09.499Z,1.25
2024-01-18T22:27:55.191Z,1.70
2024-01-18T22:30:40.729Z,1.00
2024-01-18T22:33:26.172Z,1.13
2024-01-18T22:36:11.912Z,1.45
2024-01-18T22:38:58.555Z,0.95
2024-01-18T22:41:44.278Z,1.75
2024-01-18T22:44:30.033Z,1.48
2024-01-18T22:47:15.952Z,1.90
2024-01-18T22:50:01.928Z,2.28
2024-01-18T22:52:47.400Z,2.13
2024-01-18T22:55:34.148Z,1.75
2024-01-18T22:58:19.952Z,3.95
2024-01-18T23:01:07.154Z,2.35
2024-01-18T23:03:52.950Z,0.82
2024-01-18T23:06:38.838Z,1.98
2024-01-18T23:09:24.385Z,2.60
2024-01-18T23:12:09.977Z,2.67
2024-01-18T23:14:55.376Z,1.83
2024-01-18T23:17:41.049Z,2.25
2024-01-18T23:20:26.595Z,2.58
2024-01-18T23:23:12.083Z,1.73
2024-01-18T23:26:00.295Z,1.95
2024-01-18T23:28:46.296Z,3.13
2024-01-18T23:31:32.004Z,2.08
2024-01-18T23:34:17.555Z,3.08
2024-01-18T23:37:03.183Z,1.83
2024-01-18T23:39:48.759Z,2.70
2024-01-18T23:42:34.393Z,2.63
2024-01-18T23:45:19.886Z,2.53
2024-01-18T23:48:06.273Z,1.85
2024-01-18T23:50:52.204Z,1.25
2024-01-18T23:53:38.117Z,1.90
2024-01-18T23:56:23.821Z,2.08
2024-01-18T23:59:09.269Z,2.78
